Time;durP1;ratioP1;P1;durP2;ratioP2;P2;SDS_P1;SDS_P2;PMS_P1;PMS_P2;Temp;Humidity;BMP_temperature;BMP_pressure;BME280_temperature;BME280_humidity;BME280_pressure;Samples;Min_cycle;Max_cycle;Signal;HPM_P1;HPM_P2
2022/06/04 00:00:55;;;;;;;3.67;1.80;;;25.80;48.40;;;;;;5032267;28;20040;-47
2022/06/04 00:03:21;;;;;;;3.85;1.75;;;25.80;48.10;;;;;;5028233;28;20109;-46
2022/06/04 00:05:51;;;;;;;3.20;1.80;;;25.80;48.10;;;;;;5017395;28;20538;-47
2022/06/04 00:08:18;;;;;;;3.20;1.75;;;25.80;48.10;;;;;;5034342;28;20033;-46
2022/06/04 00:16:17;;;;;;;3.28;1.70;;;25.80;48.00;;;;;;5024590;28;20017;-47
2022/06/04 00:18:43;;;;;;;2.78;1.55;;;25.80;48.30;;;;;;5034296;28;20113;-47
2022/06/04 00:21:11;;;;;;;3.10;1.70;;;25.70;48.30;;;;;;5024216;28;20093;-47
2022/06/04 00:23:40;;;;;;;3.10;1.67;;;25.80;48.40;;;;;;5032190;28;20146;-46
2022/06/04 00:26:08;;;;;;;3.30;1.70;;;25.70;48.50;;;;;;5034238;28;20014;-46
2022/06/04 00:28:34;;;;;;;3.22;1.95;;;25.70;48.40;;;;;;5032150;28;20051;-46
2022/06/04 00:31:00;;;;;;;3.22;1.88;;;25.70;48.60;;;;;;5024128;28;20163;-46
2022/06/04 00:33:26;;;;;;;2.92;1.63;;;25.70;48.60;;;;;;5033764;28;20051;-45
2022/06/04 00:35:54;;;;;;;3.08;1.80;;;25.70;48.50;;;;;;5032409;28;20021;-45
2022/06/04 00:38:23;;;;;;;3.20;1.70;;;25.70;48.50;;;;;;5031011;28;20515;-45
2022/06/04 00:41:07;;;;;;;3.40;1.77;;;25.70;48.50;;;;;;5023891;28;20016;-47
2022/06/04 00:44:09;;;;;;;4.95;1.98;;;25.70;49.10;;;;;;5032833;28;20573;-47
2022/06/04 00:46:40;;;;;;;8.00;1.60;;;25.70;48.50;;;;;;5034051;28;20025;-46
2022/06/04 00:49:10;;;;;;;3.85;1.67;;;25.70;48.50;;;;;;5033526;28;20020;-48
2022/06/04 00:51:37;;;;;;;5.18;1.95;;;25.70;48.50;;;;;;5032314;28;20754;-47
2022/06/04 00:54:04;;;;;;;3.28;1.60;;;25.70;48.40;;;;;;5033632;28;20116;-47
2022/06/04 00:56:30;;;;;;;3.35;1.63;;;25.70;48.40;;;;;;5033475;28;20062;-48
2022/06/04 00:59:24;;;;;;;3.40;1.73;;;25.70;48.30;;;;;;5005968;28;20355;-46
2022/06/04 01:02:19;;;;;;;3.50;1.73;;;25.70;48.40;;;;;;5033019;28;20051;-44
2022/06/04 01:05:03;;;;;;;2.58;1.50;;;25.70;48.50;;;;;;5021132;28;20151;-48
2022/06/04 01:07:43;;;;;;;2.42;1.40;;;25.70;48.60;;;;;;5033075;28;20081;-46
2022/06/04 01:10:38;;;;;;;2.95;1.45;;;25.70;48.50;;;;;;5032592;28;20096;-47
2022/06/04 01:13:34;;;;;;;3.08;1.60;;;25.70;48.60;;;;;;5014139;28;20108;-48
2022/06/04 01:16:32;;;;;;;2.38;1.20;;;25.70;48.70;;;;;;5014059;28;20087;-47
2022/06/04 01:19:19;;;;;;;2.30;1.38;;;25.70;48.70;;;;;;5031084;28;20556;-46
2022/06/04 01:22:13;;;;;;;2.33;1.40;;;25.60;48.80;;;;;;5023644;28;20010;-48
2022/06/04 01:25:04;;;;;;;3.35;1.42;;;25.70;48.70;;;;;;5032873;28;20017;-46
2022/06/04 01:27:50;;;;;;;4.13;1.50;;;25.70;48.70;;;;;;5031379;28;20029;-46
2022/06/04 01:30:45;;;;;;;2.90;1.50;;;25.60;48.80;;;;;;5022815;28;20042;-44
2022/06/04 01:33:36;;;;;;;2.00;1.27;;;25.70;48.80;;;;;;5006035;28;20214;-46
2022/06/04 01:36:07;;;;;;;4.20;1.70;;;25.60;48.70;;;;;;5031526;28;20021;-47
2022/06/04 01:38:42;;;;;;;2.83;1.45;;;25.70;48.80;;;;;;5031179;28;20065;-46
2022/06/04 01:41:28;;;;;;;2.80;1.90;;;25.60;48.60;;;;;;5029180;28;20608;-47
2022/06/04 01:44:05;;;;;;;2.22;1.40;;;25.60;48.50;;;;;;5032461;28;20017;-47
2022/06/04 01:46:42;;;;;;;2.47;1.25;;;25.60;48.50;;;;;;5013590;28;20028;-46
2022/06/04 01:49:36;;;;;;;2.80;1.42;;;25.60;48.60;;;;;;5031249;28;20398;-47
2022/06/04 01:52:07;;;;;;;3.10;1.58;;;25.60;48.60;;;;;;5032268;28;20119;-47
2022/06/04 01:55:00;;;;;;;2.78;1.60;;;25.60;48.40;;;;;;5032185;28;20041;-46
2022/06/04 01:57:45;;;;;;;;;;;25.60;48.50;;;;;;5021616;28;20037;-47
2022/06/04 02:00:17;;;;;;;2.53;1.40;;;25.60;48.50;;;;;;5032605;28;20455;-47
2022/06/04 02:02:57;;;;;;;3.45;1.60;;;25.60;48.60;;;;;;5033000;28;20109;-45
2022/06/04 02:05:37;;;;;;;2.40;1.17;;;25.60;48.70;;;;;;5028373;28;20037;-47
2022/06/04 02:08:06;;;;;;;2.85;1.58;;;25.60;48.80;;;;;;5031706;28;20041;-46
2022/06/04 02:11:12;;;;;;;2.72;1.30;;;25.60;48.70;;;;;;5031388;28;20592;-46
2022/06/04 02:13:39;;;;;;;3.33;1.30;;;25.60;48.80;;;;;;4987995;28;20037;-47
2022/06/04 02:16:10;;;;;;;3.30;1.40;;;25.60;48.70;;;;;;5023006;28;20045;-47
2022/06/04 02:18:37;;;;;;;2.70;1.48;;;25.60;48.70;;;;;;5032236;28;20021;-47
2022/06/04 02:21:04;;;;;;;3.25;1.58;;;25.60;48.70;;;;;;5031344;28;20029;-46
2022/06/04 02:23:30;;;;;;;2.90;1.42;;;25.60;48.80;;;;;;5029658;28;20033;-47
2022/06/04 02:25:57;;;;;;;2.13;1.08;;;25.60;48.80;;;;;;5032895;28;20018;-47
2022/06/04 02:28:23;;;;;;;2.53;1.35;;;25.60;48.70;;;;;;5032315;28;20037;-46
2022/06/04 02:31:16;;;;;;;2.58;1.40;;;25.60;48.70;;;;;;5022840;28;20095;-46
2022/06/04 02:34:06;;;;;;;2.30;1.13;;;25.60;48.70;;;;;;5032104;28;20098;-46
2022/06/04 02:37:06;;;;;;;2.03;1.15;;;25.60;48.70;;;;;;5016889;28;20120;-46
2022/06/04 02:39:40;;;;;;;2.47;1.33;;;25.60;48.70;;;;;;5030369;28;20178;-47
2022/06/04 02:42:22;;;;;;;2.70;1.33;;;25.60;48.80;;;;;;5029835;28;20101;-44
2022/06/04 02:45:00;;;;;;;2.47;1.30;;;25.60;48.70;;;;;;5031614;28;20021;-47
2022/06/04 02:47:41;;;;;;;3.08;1.60;;;25.60;48.70;;;;;;5030033;28;20621;-47
2022/06/04 02:50:48;;;;;;;2.80;1.55;;;25.60;48.80;;;;;;5034041;28;20514;-46
2022/06/04 02:53:15;;;;;;;2.38;1.20;;;25.60;48.80;;;;;;5010282;28;20049;-45
2022/06/04 02:55:49;;;;;;;3.03;1.30;;;25.60;48.80;;;;;;5025347;28;20061;-46
2022/06/04 02:58:18;;;;;;;2.28;1.08;;;25.60;48.90;;;;;;5034359;28;20040;-47
2022/06/04 03:00:46;;;;;;;2.53;1.20;;;25.60;48.80;;;;;;5033675;28;20026;-46
2022/06/04 03:03:13;;;;;;;2.55;1.30;;;25.60;48.70;;;;;;5025726;28;20021;-47
2022/06/04 03:05:54;;;;;;;2.97;1.40;;;25.60;48.60;;;;;;5033224;28;20033;-46
2022/06/04 03:08:20;;;;;;;3.58;1.23;;;25.50;48.60;;;;;;5016129;28;20511;-46
2022/06/04 03:10:46;;;;;;;2.40;1.25;;;25.60;48.60;;;;;;5030155;28;20029;-47
2022/06/04 03:13:12;;;;;;;2.85;1.40;;;25.50;48.60;;;;;;5031765;28;20538;-47
2022/06/04 03:15:38;;;;;;;2.30;1.20;;;25.60;48.60;;;;;;5032680;28;20091;-47
2022/06/04 03:18:03;;;;;;;2.00;1.10;;;25.60;48.70;;;;;;5034123;28;20030;-46
2022/06/04 03:20:29;;;;;;;2.15;1.30;;;25.60;48.60;;;;;;5036248;28;20038;-46
2022/06/04 03:22:55;;;;;;;2.55;1.30;;;25.60;48.40;;;;;;5035201;28;20025;-47
2022/06/04 03:25:21;;;;;;;2.53;1.50;;;25.60;48.50;;;;;;5024823;28;20034;-46
2022/06/04 03:27:47;;;;;;;3.42;1.38;;;25.60;48.40;;;;;;5034247;28;20500;-46
2022/06/04 03:30:14;;;;;;;2.30;1.00;;;25.50;48.30;;;;;;5024635;28;20025;-46
2022/06/04 03:32:40;;;;;;;2.33;1.23;;;25.60;48.30;;;;;;5034766;28;20100;-44
2022/06/04 03:35:06;;;;;;;2.47;1.38;;;25.50;48.20;;;;;;5035222;28;20025;-46
2022/06/04 03:37:33;;;;;;;1.95;1.10;;;25.50;48.30;;;;;;5035280;28;20102;-46
2022/06/04 03:39:59;;;;;;;2.25;1.25;;;25.50;48.40;;;;;;5033979;28;20049;-48
2022/06/04 03:42:24;;;;;;;2.05;1.20;;;25.60;48.50;;;;;;5035127;28;20056;-47
2022/06/04 03:44:50;;;;;;;1.48;1.00;;;25.50;48.50;;;;;;5033285;28;20056;-46
2022/06/04 03:47:17;;;;;;;2.20;1.15;;;25.50;48.50;;;;;;5024890;28;20046;-47
2022/06/04 03:49:44;;;;;;;2.78;1.20;;;25.50;48.50;;;;;;5034698;28;20110;-46
2022/06/04 03:52:11;;;;;;;2.30;1.10;;;25.50;48.50;;;;;;5035597;28;20067;-47
2022/06/04 03:54:53;;;;;;;2.75;1.45;;;25.50;49.20;;;;;;5024546;28;20033;-46
2022/06/04 03:57:39;;;;;;;2.47;1.27;;;25.50;48.50;;;;;;5032298;28;20026;-45
2022/06/04 04:00:10;;;;;;;2.05;1.17;;;25.50;48.40;;;;;;5024106;28;20117;-46
2022/06/04 04:02:36;;;;;;;2.22;1.17;;;25.50;48.40;;;;;;5034171;28;20021;-45
2022/06/04 04:05:04;;;;;;;2.15;1.13;;;25.50;48.40;;;;;;5014569;28;20033;-46
2022/06/04 04:07:31;;;;;;;2.17;1.20;;;25.50;48.50;;;;;;5028712;28;20039;-47
2022/06/04 04:09:57;;;;;;;2.33;1.30;;;25.50;48.50;;;;;;5033572;28;20109;-46
2022/06/04 04:12:23;;;;;;;1.67;1.02;;;25.50;48.50;;;;;;5031986;28;20112;-46
2022/06/04 04:14:48;;;;;;;1.52;1.10;;;25.50;48.50;;;;;;5023710;28;20033;-46
2022/06/04 04:17:14;;;;;;;2.67;1.30;;;25.50;49.20;;;;;;5032971;28;20120;-47
2022/06/04 04:19:40;;;;;;;1.75;1.05;;;25.50;48.60;;;;;;5023893;28;20021;-46
2022/06/04 04:22:05;;;;;;;2.40;1.50;;;25.50;48.50;;;;;;5030952;28;20040;-46
2022/06/04 04:24:31;;;;;;;2.33;1.20;;;25.50;48.60;;;;;;5033193;28;20047;-46
2022/06/04 04:26:57;;;;;;;2.38;1.02;;;25.50;48.50;;;;;;5033480;28;20033;-47
2022/06/04 04:29:23;;;;;;;2.13;1.20;;;25.50;48.60;;;;;;5015631;28;20030;-50
2022/06/04 04:31:48;;;;;;;1.77;0.98;;;25.50;48.50;;;;;;5033880;28;20018;-45
2022/06/04 04:34:14;;;;;;;2.03;1.10;;;25.50;48.50;;;;;;5023402;28;20024;-46
2022/06/04 04:36:40;;;;;;;2.30;1.10;;;25.50;48.50;;;;;;5033742;28;20049;-47
2022/06/04 04:39:06;;;;;;;1.95;1.15;;;25.50;48.60;;;;;;5030948;28;20104;-47
2022/06/04 04:41:32;;;;;;;1.85;1.05;;;25.50;48.40;;;;;;5023557;28;20021;-46
2022/06/04 04:43:57;;;;;;;1.90;1.10;;;25.50;48.50;;;;;;5033326;28;20069;-46
2022/06/04 04:46:23;;;;;;;1.73;1.05;;;25.50;48.20;;;;;;5023379;28;20041;-46
2022/06/04 04:48:49;;;;;;;2.25;1.02;;;25.50;48.30;;;;;;5033306;28;20028;-45
2022/06/04 04:51:21;;;;;;;2.05;1.02;;;25.50;48.30;;;;;;5005598;28;20529;-48
2022/06/04 04:53:48;;;;;;;2.95;1.40;;;25.50;48.30;;;;;;5034579;28;20043;-47
2022/06/04 04:56:15;;;;;;;2.42;1.25;;;25.50;48.40;;;;;;5031445;28;20029;-47
2022/06/04 04:58:41;;;;;;;1.67;1.00;;;25.50;48.40;;;;;;5023455;28;20017;-46
2022/06/04 05:01:23;;;;;;;2.40;1.08;;;25.50;48.30;;;;;;5032827;28;20429;-47
2022/06/04 05:03:50;;;;;;;2.30;1.27;;;25.50;48.30;;;;;;5031973;28;20052;-47
2022/06/04 05:06:18;;;;;;;3.00;1.00;;;25.50;48.30;;;;;;5023232;28;20053;-46
2022/06/04 05:08:45;;;;;;;1.90;1.10;;;25.50;48.20;;;;;;5013896;28;20084;-46
2022/06/04 05:11:17;;;;;;;2.00;1.00;;;25.50;48.10;;;;;;5023323;28;20048;-45
2022/06/04 05:13:43;;;;;;;1.27;0.73;;;25.50;48.20;;;;;;5031582;28;20565;-47
2022/06/04 05:16:09;;;;;;;2.97;1.35;;;25.50;48.20;;;;;;5022474;28;20036;-44
2022/06/04 05:18:35;;;;;;;1.83;1.08;;;25.50;48.70;;;;;;5032001;28;20017;-46
2022/06/04 05:21:20;;;;;;;2.25;1.10;;;25.50;48.00;;;;;;5022876;28;20021;-46
2022/06/04 05:23:45;;;;;;;2.33;1.25;;;25.50;48.20;;;;;;5032286;28;20195;-47
2022/06/04 05:26:11;;;;;;;2.75;1.02;;;25.50;48.10;;;;;;5031199;28;20511;-46
2022/06/04 05:28:37;;;;;;;1.77;0.90;;;25.50;48.20;;;;;;5022227;28;20069;-45
2022/06/04 05:31:03;;;;;;;2.50;0.90;;;25.50;48.20;;;;;;5032084;28;20065;-47
2022/06/04 05:33:29;;;;;;;2.50;1.38;;;25.50;48.20;;;;;;5022908;28;20095;-47
2022/06/04 05:35:55;;;;;;;2.25;1.10;;;25.50;48.30;;;;;;5030537;28;20032;-47
2022/06/04 05:38:21;;;;;;;2.45;1.10;;;25.50;48.30;;;;;;5027470;28;20025;-46
2022/06/04 05:40:47;;;;;;;2.13;1.00;;;25.50;48.30;;;;;;5022303;28;20073;-46
2022/06/04 05:43:13;;;;;;;1.85;1.10;;;25.50;48.50;;;;;;5031721;28;20025;-46
2022/06/04 05:45:39;;;;;;;1.45;0.85;;;25.50;48.60;;;;;;5032162;28;20082;-46
2022/06/04 05:48:05;;;;;;;2.17;1.00;;;25.50;48.60;;;;;;5028621;28;20512;-48
2022/06/04 05:50:31;;;;;;;3.15;1.27;;;25.50;49.10;;;;;;5029843;28;20552;-46
2022/06/04 05:52:56;;;;;;;3.03;1.38;;;25.50;49.20;;;;;;5030395;28;20103;-46
2022/06/04 05:55:22;;;;;;;2.90;1.20;;;25.50;50.40;;;;;;5033773;28;20132;-46
2022/06/04 05:57:48;;;;;;;3.58;1.33;;;25.50;49.90;;;;;;5031468;28;20032;-47
2022/06/04 06:00:14;;;;;;;2.03;0.93;;;25.50;50.40;;;;;;5032052;28;20029;-45
2022/06/04 06:02:40;;;;;;;3.08;1.33;;;25.50;50.00;;;;;;5022938;28;20036;-45
2022/06/04 06:05:07;;;;;;;2.15;1.15;;;25.50;50.80;;;;;;5023036;28;20025;-47
2022/06/04 06:07:33;;;;;;;4.30;1.35;;;25.50;51.30;;;;;;5022431;28;20044;-46
2022/06/04 06:09:59;;;;;;;3.47;1.48;;;25.50;51.20;;;;;;5023416;28;20033;-45
2022/06/04 06:12:24;;;;;;;2.35;1.35;;;25.50;50.90;;;;;;5022982;28;20030;-46
2022/06/04 06:14:50;;;;;;;2.72;1.40;;;25.50;51.20;;;;;;5022622;28;20388;-46
2022/06/04 06:17:16;;;;;;;2.92;1.38;;;25.50;51.00;;;;;;5022296;28;20029;-46
2022/06/04 06:19:42;;;;;;;2.55;1.40;;;25.50;51.00;;;;;;5022991;28;20385;-47
2022/06/04 06:22:07;;;;;;;2.92;1.40;;;25.50;51.40;;;;;;5022904;28;20139;-46
2022/06/04 06:24:33;;;;;;;2.80;1.30;;;25.50;51.50;;;;;;5024976;28;20239;-47
2022/06/04 06:27:00;;;;;;;3.15;1.30;;;25.50;51.30;;;;;;5026319;28;20025;-47
2022/06/04 06:29:29;;;;;;;3.50;1.27;;;25.50;51.50;;;;;;5008788;28;20047;-47
2022/06/04 06:31:56;;;;;;;3.88;1.60;;;25.60;51.60;;;;;;5035856;28;20013;-47
2022/06/04 06:34:23;;;;;;;3.67;1.67;;;25.60;51.20;;;;;;5033855;28;20038;-46
2022/06/04 06:36:49;;;;;;;3.40;1.45;;;25.60;51.10;;;;;;5025788;28;20067;-46
2022/06/04 06:39:15;;;;;;;2.78;1.35;;;25.50;51.30;;;;;;5034264;28;20017;-46
2022/06/04 06:41:41;;;;;;;4.05;1.38;;;25.60;51.40;;;;;;5035798;28;20071;-46
2022/06/04 06:44:07;;;;;;;4.25;1.77;;;25.60;51.60;;;;;;5045636;28;20813;-47
2022/06/04 06:46:37;;;;;;;3.17;1.52;;;25.60;51.10;;;;;;5015986;28;20099;-46
2022/06/04 06:49:07;;;;;;;2.53;1.20;;;25.60;51.20;;;;;;5005875;28;20029;-46
2022/06/04 06:51:38;;;;;;;2.60;1.40;;;25.60;51.30;;;;;;5005824;28;20504;-47
2022/06/04 06:54:04;;;;;;;2.85;1.38;;;25.60;51.40;;;;;;5020285;28;20045;-45
2022/06/04 06:56:37;;;;;;;2.53;1.40;;;25.60;51.40;;;;;;5024591;28;20125;-47
2022/06/04 06:59:04;;;;;;;2.40;1.10;;;25.60;51.60;;;;;;5023936;28;20082;-47
2022/06/04 07:01:31;;;;;;;1.95;1.10;;;25.60;51.70;;;;;;5025833;28;20144;-47
2022/06/04 07:03:58;;;;;;;2.88;1.50;;;25.60;51.70;;;;;;5025878;28;20018;-47
2022/06/04 07:06:39;;;;;;;3.97;1.45;;;25.60;51.60;;;;;;5025549;28;20770;-47
2022/06/04 07:09:09;;;;;;;3.47;1.60;;;25.70;51.60;;;;;;5025010;28;20692;-48
2022/06/04 07:11:35;;;;;;;2.97;1.75;;;25.60;51.60;;;;;;5025214;28;20159;-47
2022/06/04 07:14:01;;;;;;;2.30;1.27;;;25.70;51.60;;;;;;5025598;28;20052;-47
2022/06/04 07:16:27;;;;;;;4.30;1.80;;;25.70;51.40;;;;;;5025140;28;20033;-47
2022/06/04 07:18:52;;;;;;;2.50;1.52;;;25.70;51.40;;;;;;5025256;28;20025;-47
2022/06/04 07:21:19;;;;;;;3.00;1.65;;;25.70;51.40;;;;;;5024966;28;20021;-47
2022/06/04 07:23:45;;;;;;;3.30;1.42;;;25.70;51.40;;;;;;5028248;28;20124;-46
2022/06/04 07:26:12;;;;;;;3.17;1.67;;;25.70;51.30;;;;;;5035742;28;20454;-46
2022/06/04 07:28:39;;;;;;;3.08;1.75;;;25.70;51.30;;;;;;5033124;28;20024;-47
2022/06/04 07:31:06;;;;;;;3.40;1.77;;;25.70;51.20;;;;;;5038488;28;20020;-47
2022/06/04 07:33:32;;;;;;;3.30;2.17;;;25.70;51.10;;;;;;5009861;28;20056;-46
2022/06/04 07:35:59;;;;;;;4.25;1.80;;;25.70;51.20;;;;;;5042852;28;20040;-47
2022/06/04 07:38:25;;;;;;;3.00;1.75;;;25.70;51.30;;;;;;5035246;28;20037;-47
2022/06/04 07:40:51;;;;;;;2.78;1.70;;;25.70;51.20;;;;;;5024291;28;20598;-47
2022/06/04 07:43:16;;;;;;;3.08;1.80;;;25.70;51.30;;;;;;5024382;28;20073;-47
2022/06/04 07:45:42;;;;;;;2.55;1.52;;;25.70;51.30;;;;;;5024457;28;20025;-46
2022/06/04 07:48:09;;;;;;;2.38;1.45;;;25.70;51.10;;;;;;5023968;28;20036;-47
2022/06/04 07:50:35;;;;;;;2.97;1.90;;;25.70;51.10;;;;;;5024172;28;20030;-47
2022/06/04 07:53:01;;;;;;;3.58;2.00;;;25.70;51.10;;;;;;5023715;28;20022;-47
2022/06/04 07:55:27;;;;;;;2.88;1.80;;;25.70;51.20;;;;;;5023725;28;20036;-47
2022/06/04 07:57:53;;;;;;;3.13;1.90;;;25.70;51.20;;;;;;5023901;28;20021;-47
2022/06/04 08:00:20;;;;;;;3.20;1.55;;;25.70;51.30;;;;;;5006134;28;20024;-48
2022/06/04 08:02:46;;;;;;;3.28;1.70;;;25.70;51.40;;;;;;5020326;28;20025;-46
2022/06/04 08:05:13;;;;;;;2.42;1.45;;;25.70;51.30;;;;;;5023232;28;20566;-48
2022/06/04 08:07:39;;;;;;;4.38;2.00;;;25.70;51.20;;;;;;5022676;28;20108;-47
2022/06/04 08:10:08;;;;;;;3.03;1.80;;;25.70;51.10;;;;;;5023650;28;20026;-48
2022/06/04 08:13:10;;;;;;;3.20;1.70;;;25.70;51.20;;;;;;5023266;28;20033;-47
2022/06/04 08:15:29;;;;;;;2.58;1.77;;;25.70;51.20;;;;;;5002364;28;20207;-48
2022/06/04 08:17:55;;;;;;;3.08;2.05;;;25.70;51.00;;;;;;5022639;28;20141;-47
2022/06/04 08:20:21;;;;;;;3.60;2.08;;;25.70;51.40;;;;;;5023711;28;20032;-46
2022/06/04 08:22:48;;;;;;;3.38;2.20;;;25.70;51.20;;;;;;5023848;28;20025;-47
2022/06/04 08:25:14;;;;;;;4.25;2.65;;;25.70;51.10;;;;;;5024105;28;20026;-46
2022/06/04 08:27:39;;;;;;;3.10;1.92;;;25.70;51.00;;;;;;5022892;28;20036;-46
2022/06/04 08:30:06;;;;;;;4.82;2.08;;;25.70;50.90;;;;;;5022715;28;20041;-45
2022/06/04 08:32:32;;;;;;;4.05;2.53;;;25.70;51.30;;;;;;4997238;28;20041;-46
2022/06/04 08:34:58;;;;;;;3.53;2.03;;;25.70;52.60;;;;;;5003900;28;20032;-46
2022/06/04 08:37:24;;;;;;;4.53;2.08;;;25.70;52.10;;;;;;5023341;28;20033;-45
2022/06/04 08:39:49;;;;;;;3.70;2.20;;;25.70;51.60;;;;;;5022836;28;20033;-47
2022/06/04 08:42:39;;;;;;;3.40;2.28;;;25.70;51.60;;;;;;5023611;28;20571;-47
2022/06/04 08:45:10;;;;;;;3.72;2.45;;;25.80;51.50;;;;;;5006420;28;20033;-47
2022/06/04 08:47:47;;;;;;;3.25;2.25;;;25.80;51.80;;;;;;5005801;28;20044;-47
2022/06/04 08:50:20;;;;;;;2.80;2.00;;;25.70;52.20;;;;;;5023420;28;20392;-46
2022/06/04 08:52:52;;;;;;;3.45;2.00;;;25.80;51.70;;;;;;5005726;28;20033;-46
2022/06/04 08:58:20;;;;;;;4.38;2.25;;;25.80;51.50;;;;;;5023775;28;20068;-47
2022/06/04 09:00:55;;;;;;;3.47;2.00;;;25.80;51.50;;;;;;5023551;28;20029;-44
2022/06/04 09:03:37;;;;;;;4.63;2.17;;;25.80;51.50;;;;;;5023819;28;20029;-45
2022/06/04 09:06:09;;;;;;;4.03;2.67;;;25.80;51.40;;;;;;5023813;28;20026;-49
2022/06/04 09:09:17;;;;;;;3.83;2.35;;;25.80;51.50;;;;;;5022952;28;20117;-46
2022/06/04 09:11:58;;;;;;;2.67;1.90;;;25.80;51.30;;;;;;4981041;28;20153;-45
2022/06/04 09:14:50;;;;;;;3.17;2.10;;;25.80;51.40;;;;;;5021660;28;20559;-46
2022/06/04 09:17:25;;;;;;;3.88;2.10;;;25.90;51.40;;;;;;5026093;28;20116;-46
2022/06/04 09:19:56;;;;;;;4.57;2.40;;;25.90;51.30;;;;;;5031790;28;20091;-45
2022/06/04 09:22:28;;;;;;;3.65;2.30;;;25.90;51.10;;;;;;5030768;28;20026;-45
2022/06/04 09:24:54;;;;;;;3.65;2.13;;;25.90;51.40;;;;;;5032298;28;20109;-46
2022/06/04 09:27:32;;;;;;;3.28;2.15;;;25.90;51.40;;;;;;5023718;28;20108;-46
2022/06/04 09:30:16;;;;;;;2.95;2.00;;;25.90;51.50;;;;;;5031351;28;20551;-46
2022/06/04 09:33:32;;;;;;;3.75;2.38;;;25.90;51.40;;;;;;5004677;28;20029;-46
2022/06/04 09:35:59;;;;;;;3.17;1.92;;;25.90;51.00;;;;;;5031255;28;20029;-45
2022/06/04 09:38:28;;;;;;;3.17;2.33;;;25.90;50.90;;;;;;5025248;28;20025;-47
2022/06/04 09:41:04;;;;;;;5.45;2.35;;;25.90;50.90;;;;;;5021985;28;20042;-46
2022/06/04 09:43:31;;;;;;;3.90;2.60;;;25.90;51.00;;;;;;5030268;28;20078;-46
2022/06/04 09:46:00;;;;;;;2.85;1.92;;;25.90;51.20;;;;;;5029425;28;20647;-46
2022/06/04 09:48:34;;;;;;;3.47;2.20;;;25.90;51.20;;;;;;5022541;28;20543;-47
2022/06/04 09:51:17;;;;;;;3.55;2.13;;;25.90;51.30;;;;;;5038328;28;20036;-45
2022/06/04 09:53:46;;;;;;;3.38;2.00;;;25.90;51.80;;;;;;5033746;28;20041;-47
2022/06/04 09:56:35;;;;;;;3.08;1.83;;;25.90;51.80;;;;;;5022513;28;20035;-46
2022/06/04 09:59:24;;;;;;;3.67;2.15;;;26.00;51.70;;;;;;5023858;28;20013;-46
2022/06/04 10:01:58;;;;;;;3.80;2.20;;;26.00;51.50;;;;;;5026852;28;20022;-47
2022/06/04 10:04:55;;;;;;;3.83;1.95;;;26.00;51.40;;;;;;5027184;28;20029;-46
2022/06/04 10:07:33;;;;;;;4.40;2.53;;;26.00;51.60;;;;;;5018214;28;20525;-46
2022/06/04 10:10:28;;;;;;;5.80;2.47;;;26.00;51.50;;;;;;5026423;28;20117;-47
2022/06/04 10:15:47;;;;;;;3.03;2.08;;;26.00;51.80;;;;;;5026949;28;20174;-46
2022/06/04 10:18:37;;;;;;;3.53;2.13;;;26.00;51.50;;;;;;5026589;28;20485;-47
2022/06/04 10:21:21;;;;;;;3.05;1.90;;;26.10;51.80;;;;;;5027220;28;20117;-46
2022/06/04 10:23:49;;;;;;;3.08;2.13;;;26.10;51.70;;;;;;5006831;28;20033;-46
2022/06/04 10:26:39;;;;;;;3.10;2.00;;;26.10;51.70;;;;;;5026500;28;20034;-47
2022/06/04 10:29:36;;;;;;;5.45;2.40;;;26.10;51.60;;;;;;5025643;28;20668;-46
2022/06/04 10:32:25;;;;;;;3.42;1.88;;;26.10;51.40;;;;;;5025912;28;20068;-47
2022/06/04 10:35:16;;;;;;;3.63;2.15;;;26.10;51.10;;;;;;5026087;28;20037;-47
2022/06/04 10:38:06;;;;;;;3.55;1.63;;;26.10;51.70;;;;;;5026115;28;20037;-46
2022/06/04 10:40:50;;;;;;;4.28;2.00;;;26.20;50.90;;;;;;5006578;28;20049;-47
2022/06/04 10:43:40;;;;;;;3.88;2.15;;;26.20;49.90;;;;;;5006689;28;20022;-45
2022/06/04 10:46:38;;;;;;;3.92;2.00;;;26.20;51.00;;;;;;5021774;28;20056;-46
2022/06/04 10:49:04;;;;;;;3.53;1.63;;;26.20;50.60;;;;;;5025971;28;20167;-45
2022/06/04 10:51:49;;;;;;;3.03;1.50;;;26.20;50.80;;;;;;5026302;28;20693;-46
2022/06/04 10:54:47;;;;;;;3.22;1.90;;;26.30;50.40;;;;;;5026001;28;20049;-47
2022/06/04 10:57:28;;;;;;;3.72;1.80;;;26.30;50.40;;;;;;5017335;28;20631;-47
2022/06/04 11:00:11;;;;;;;3.72;1.88;;;26.30;50.10;;;;;;5025881;28;20030;-47
2022/06/04 11:03:08;;;;;;;2.78;1.50;;;26.30;50.00;;;;;;5033007;28;20040;-48
2022/06/04 11:06:04;;;;;;;3.67;1.88;;;26.30;49.80;;;;;;5033551;28;20033;-48
2022/06/04 11:08:38;;;;;;;2.80;1.50;;;26.40;50.00;;;;;;5005021;28;20033;-48
2022/06/04 11:11:20;;;;;;;2.88;1.60;;;26.40;49.70;;;;;;5032516;28;20026;-46
2022/06/04 11:14:22;;;;;;;3.57;1.50;;;26.40;49.90;;;;;;5031260;28;20022;-46
2022/06/04 11:16:59;;;;;;;3.13;1.77;;;26.40;50.00;;;;;;4999489;28;20033;-46
2022/06/04 11:19:53;;;;;;;6.05;2.15;;;26.40;50.20;;;;;;5033322;28;20029;-47
2022/06/04 11:22:39;;;;;;;3.17;1.63;;;26.40;50.10;;;;;;5025983;28;20026;-46
2022/06/04 11:25:08;;;;;;;4.10;1.98;;;26.40;50.10;;;;;;5026076;28;20105;-47
2022/06/04 11:27:43;;;;;;;3.03;1.65;;;26.40;50.00;;;;;;5026060;28;20715;-46
2022/06/04 11:30:20;;;;;;;2.85;1.70;;;26.40;50.00;;;;;;5025839;28;20041;-47
2022/06/04 11:32:58;;;;;;;4.85;2.17;;;26.40;49.90;;;;;;5025686;28;20033;-46
2022/06/04 11:35:44;;;;;;;3.22;1.67;;;26.40;50.00;;;;;;5025500;28;20297;-46
2022/06/04 11:38:26;;;;;;;3.25;1.50;;;26.40;49.90;;;;;;5025550;28;20545;-46
2022/06/04 11:41:16;;;;;;;2.87;1.63;;;26.40;49.90;;;;;;5025913;28;20025;-47
2022/06/04 11:44:12;;;;;;;4.68;1.60;;;26.40;49.90;;;;;;5025617;28;20075;-46
2022/06/04 11:46:49;;;;;;;2.90;1.48;;;26.40;49.80;;;;;;5025921;28;20045;-45
2022/06/04 11:49:40;;;;;;;3.20;1.77;;;26.40;49.70;;;;;;5025148;28;20041;-47
2022/06/04 11:52:09;;;;;;;3.63;1.85;;;26.40;49.70;;;;;;5025332;28;20044;-47
2022/06/04 11:54:47;;;;;;;3.80;1.60;;;26.50;49.70;;;;;;5025560;28;20037;-46
2022/06/04 11:57:18;;;;;;;3.10;1.60;;;26.50;49.70;;;;;;5005720;28;20029;-47
2022/06/04 12:00:05;;;;;;;2.45;1.33;;;26.50;49.60;;;;;;5005099;28;20729;-46
2022/06/04 12:02:37;;;;;;;3.13;1.67;;;26.50;49.60;;;;;;5005933;28;20060;-46
2022/06/04 12:05:24;;;;;;;2.35;1.30;;;26.50;49.50;;;;;;5005691;28;20037;-46
2022/06/04 12:07:54;;;;;;;3.15;1.60;;;26.50;49.50;;;;;;5006014;28;20176;-46
2022/06/04 12:10:23;;;;;;;2.97;1.45;;;26.50;49.50;;;;;;5023353;28;20400;-46
2022/06/04 12:13:29;;;;;;;2.92;1.35;;;26.50;49.40;;;;;;5014565;28;20501;-47
2022/06/04 12:16:02;;;;;;;4.07;1.48;;;26.60;49.50;;;;;;5025106;28;20202;-46
2022/06/04 12:18:34;;;;;;;2.25;1.30;;;26.50;49.40;;;;;;5005981;28;20033;-47
2022/06/04 12:24:28;;;;;;;2.50;1.23;;;26.50;49.20;;;;;;5013866;28;20029;-47
2022/06/04 12:27:21;;;;;;;3.20;1.38;;;26.60;49.20;;;;;;5024557;28;20116;-46
2022/06/04 12:29:55;;;;;;;1.92;1.10;;;26.60;49.10;;;;;;5012835;28;20040;-46
2022/06/04 12:32:34;;;;;;;2.38;1.40;;;26.60;49.10;;;;;;5005224;28;20034;-47
2022/06/04 12:35:11;;;;;;;2.60;1.30;;;26.60;49.00;;;;;;4987608;28;20478;-47
2022/06/04 12:37:43;;;;;;;3.47;1.85;;;26.60;49.00;;;;;;5005126;28;20029;-46
2022/06/04 12:40:23;;;;;;;2.60;1.50;;;26.60;48.90;;;;;;5022103;28;20048;-46
2022/06/04 12:43:10;;;;;;;2.83;1.40;;;26.60;48.90;;;;;;5024765;28;20566;-46
2022/06/04 12:45:45;;;;;;;1.80;1.10;;;26.60;48.90;;;;;;5024897;28;20057;-46
2022/06/04 12:48:33;;;;;;;1.85;1.05;;;26.60;48.80;;;;;;5024710;28;20029;-46
2022/06/04 12:51:16;;;;;;;2.38;1.30;;;26.60;48.80;;;;;;5024572;28;20032;-46
2022/06/04 12:53:55;;;;;;;1.85;1.15;;;26.60;48.70;;;;;;5024309;28;20035;-46
2022/06/04 12:56:33;;;;;;;2.70;1.30;;;26.50;48.70;;;;;;5024357;28;20065;-46
2022/06/04 12:59:02;;;;;;;3.28;1.23;;;26.50;48.70;;;;;;5024384;28;20029;-45
2022/06/04 13:01:32;;;;;;;2.33;1.10;;;26.50;48.70;;;;;;5023726;28;20041;-47
2022/06/04 13:04:09;;;;;;;2.17;1.20;;;26.60;48.80;;;;;;5025033;28;20025;-46
2022/06/04 13:06:53;;;;;;;2.30;1.20;;;26.50;48.80;;;;;;5024350;28;20107;-47
2022/06/04 13:09:49;;;;;;;2.55;1.20;;;26.50;48.80;;;;;;5023910;28;20033;-47
2022/06/04 13:12:26;;;;;;;2.60;1.30;;;26.50;48.80;;;;;;5024378;28;20037;-47
2022/06/04 13:15:25;;;;;;;2.30;1.10;;;26.50;48.80;;;;;;5024259;28;20033;-47
2022/06/04 13:17:52;;;;;;;2.35;1.23;;;26.50;48.80;;;;;;5023965;28;20533;-47
2022/06/04 13:20:31;;;;;;;2.47;1.45;;;26.50;48.70;;;;;;5024016;28;20091;-47
2022/06/04 13:23:10;;;;;;;1.77;1.10;;;26.50;48.80;;;;;;5024721;28;20401;-48
2022/06/04 13:25:42;;;;;;;1.75;1.02;;;26.50;48.80;;;;;;4993760;28;20030;-47
2022/06/04 13:28:31;;;;;;;2.05;1.08;;;26.50;48.80;;;;;;5023823;28;20072;-46
2022/06/04 13:30:57;;;;;;;2.47;1.25;;;26.50;48.70;;;;;;5024210;28;20036;-46
2022/06/04 13:33:22;;;;;;;2.20;1.10;;;26.50;48.70;;;;;;5023436;28;20397;-47
2022/06/04 13:35:51;;;;;;;1.90;1.10;;;26.50;48.60;;;;;;5023666;28;20026;-47
2022/06/04 13:38:34;;;;;;;1.83;1.23;;;26.50;48.60;;;;;;5023697;28;20029;-47